Time;durP1;ratioP1;P1;durP2;ratioP2;P2;SDS_P1;SDS_P2;PMS_P1;PMS_P2;Temp;Humidity;BMP_temperature;BMP_pressure;BME280_temperature;BME280_humidity;BME280_pressure;Samples;Min_cycle;Max_cycle;Signal;HPM_P1;HPM_P2
2021/04/08 00:00:51;;;;;;;8.15;4.30;;;3.90;5.50;52.70;158796.00;;;;4988216;28;20429;-81
2021/04/08 00:03:19;;;;;;;9.20;4.20;;;3.90;5.80;5.00;67352.00;;;;4979009;28;20508;-81
2021/04/08 00:05:47;;;;;;;7.18;4.40;;;3.90;5.90;4.90;101090.00;;;;4988054;28;20426;-80
2021/04/08 00:08:14;;;;;;;7.10;4.30;;;3.90;6.10;4.90;101075.00;;;;4995914;28;20433;-81
2021/04/08 00:10:42;;;;;;;8.50;4.50;;;3.90;6.80;4.90;101070.00;;;;5003883;28;20517;-80
2021/04/08 00:13:10;;;;;;;9.77;4.55;;;3.80;7.00;5.00;101075.00;;;;4987488;28;20453;-80
2021/04/08 00:15:38;;;;;;;8.57;4.30;;;3.90;6.80;5.10;101072.00;;;;4986882;28;20438;-80
2021/04/08 00:18:06;;;;;;;6.82;4.10;;;3.90;6.80;5.10;101085.00;;;;4998083;28;20432;-81
2021/04/08 00:20:33;;;;;;;11.68;4.68;;;3.90;6.80;5.20;101077.00;;;;5001094;28;20479;-82
2021/04/08 00:23:01;;;;;;;7.95;4.20;;;4.00;7.10;5.10;101081.00;;;;5011604;28;20804;-79
2021/04/08 00:25:28;;;;;;;8.52;4.30;;;4.00;6.40;5.00;101082.00;;;;5010789;28;20414;-80
2021/04/08 00:27:56;;;;;;;7.83;4.60;;;3.90;6.50;4.80;101071.00;;;;5012213;28;20512;-82
2021/04/08 00:30:27;;;;;;;12.35;4.65;;;3.90;6.60;4.70;101070.00;;;;5007152;28;20430;-82
2021/04/08 00:32:54;;;;;;;9.23;4.57;;;3.80;7.00;4.70;101081.00;;;;5004321;28;20434;-81
2021/04/08 00:35:22;;;;;;;10.00;4.60;;;3.80;7.40;4.60;101087.00;;;;5006651;28;20423;-82
2021/04/08 00:37:50;;;;;;;7.80;4.63;;;3.70;7.70;4.60;101080.00;;;;5013392;28;20419;-82
2021/04/08 00:40:18;;;;;;;8.52;4.00;;;3.70;8.30;4.50;101079.00;;;;5009460;28;20436;-81
2021/04/08 00:42:45;;;;;;;10.40;4.65;;;3.60;8.00;4.60;101083.00;;;;5007715;28;20813;-81
2021/04/08 00:45:13;;;;;;;10.23;4.00;;;3.60;8.60;4.60;101082.00;;;;4996811;28;20436;-81
2021/04/08 00:47:42;;;;;;;7.85;4.20;;;3.60;8.70;4.60;101105.00;;;;5006639;28;20420;-80
2021/04/08 00:50:11;;;;;;;9.20;4.40;;;3.60;8.80;4.60;101087.00;;;;4987966;28;20446;-81
2021/04/08 00:52:40;;;;;;;7.55;4.20;;;3.50;9.00;4.60;101111.00;;;;5003045;28;20481;-81
2021/04/08 00:55:10;;;;;;;11.15;4.03;;;3.50;9.20;4.60;101107.00;;;;4986907;28;20444;-80
2021/04/08 00:57:38;;;;;;;9.40;4.20;;;3.60;9.60;4.70;101101.00;;;;4985694;28;20426;-80
2021/04/08 01:00:07;;;;;;;13.15;3.97;;;3.60;9.10;4.70;101114.00;;;;4998698;28;20537;-81
2021/04/08 01:02:35;;;;;;;9.60;4.60;;;3.50;9.30;4.70;101107.00;;;;5022855;28;20426;-82
2021/04/08 01:05:05;;;;;;;8.75;4.00;;;3.50;10.10;4.70;101108.00;;;;4997521;28;20516;-80
2021/04/08 01:07:33;;;;;;;8.77;4.13;;;3.50;9.70;4.60;101100.00;;;;5008391;28;20430;-79
2021/04/08 01:10:01;;;;;;;9.82;4.03;;;3.60;9.90;4.60;101116.00;;;;4985995;28;20440;-81
2021/04/08 01:12:28;;;;;;;7.25;4.00;;;3.50;10.00;4.60;101099.00;;;;4977876;28;20853;-80
2021/04/08 01:14:57;;;;;;;9.00;4.30;;;3.40;10.70;4.60;101112.00;;;;4994051;28;20464;-79
2021/04/08 01:17:32;;;;;;;7.38;4.43;;;3.40;10.70;4.60;101125.00;;;;4992388;28;20494;-81
2021/04/08 01:20:34;;;;;;;9.02;4.50;;;3.40;10.70;4.60;101111.00;;;;4994741;28;20840;-81
2021/04/08 01:23:45;;;;;;;10.27;4.50;;;3.40;11.10;217.30;158588.00;;;;4997288;28;20429;-80
2021/04/08 01:26:32;;;;;;;8.85;5.30;;;3.40;11.40;4.50;101137.00;;;;4985038;28;20477;-81
2021/04/08 01:29:08;;;;;;;9.30;4.80;;;3.30;11.70;4.40;101130.00;;;;5011151;28;20416;-81
2021/04/08 01:31:38;;;;;;;8.18;5.00;;;3.30;12.00;4.40;101128.00;;;;5016584;28;20441;-80
2021/04/08 01:34:11;;;;;;;9.50;5.10;;;3.20;12.40;4.30;101137.00;;;;5000984;28;20427;-80
2021/04/08 01:36:41;;;;;;;8.93;4.63;;;3.30;12.30;4.30;101129.00;;;;4992327;28;20571;-80
2021/04/08 01:39:13;;;;;;;9.93;4.97;;;3.20;12.10;4.30;101124.00;;;;4988592;28;20438;-81
2021/04/08 01:41:45;;;;;;;9.55;4.40;;;3.20;12.30;4.20;101120.00;;;;4999306;28;20514;-80
2021/04/08 01:44:18;;;;;;;6.47;4.75;;;3.20;12.20;4.20;101125.00;;;;5010953;28;20410;-81
2021/04/08 01:46:53;;;;;;;11.10;4.90;;;3.20;12.20;4.10;101140.00;;;;5006194;28;20440;-80
2021/04/08 01:49:22;;;;;;;7.57;4.68;;;3.20;12.00;4.10;101143.00;;;;5013682;28;20416;-81
2021/04/08 01:51:50;;;;;;;10.63;5.10;;;3.20;12.30;4.10;101136.00;;;;5020629;28;20513;-79
2021/04/08 01:54:19;;;;;;;9.90;5.10;;;3.10;12.60;4.10;101153.00;;;;5013283;28;20431;-81
2021/04/08 01:56:48;;;;;;;10.65;5.20;;;3.10;12.90;4.10;101159.00;;;;5013896;28;20428;-80
2021/04/08 01:59:16;;;;;;;9.30;4.90;;;3.10;13.10;4.00;101159.00;;;;5002804;28;20528;-80
2021/04/08 02:01:46;;;;;;;10.30;5.18;;;3.10;13.00;4.00;101147.00;;;;4997254;28;20432;-80
2021/04/08 02:04:15;;;;;;;10.43;5.10;;;3.00;13.30;4.00;101165.00;;;;4989275;28;20424;-80
2021/04/08 02:06:44;;;;;;;9.40;4.40;;;3.00;12.70;3.90;67123.00;;;;4988397;28;20436;-80
2021/04/08 02:09:13;;;;;;;10.48;4.80;;;3.00;12.70;4.00;101171.00;;;;4996474;28;20421;-79
2021/04/08 02:11:41;;;;;;;8.93;4.70;;;3.00;13.20;4.00;101164.00;;;;4996024;28;20433;-80
2021/04/08 02:14:12;;;;;;;9.52;4.63;;;2.90;13.40;4.00;101152.00;;;;4997155;28;20498;-81
2021/04/08 02:16:44;;;;;;;8.18;4.53;;;2.90;13.30;3.90;101163.00;;;;4997595;28;20430;-81
2021/04/08 02:19:15;;;;;;;8.73;4.40;;;2.90;12.80;4.00;101165.00;;;;5007086;28;20471;-82
2021/04/08 02:21:44;;;;;;;6.93;4.50;;;2.90;13.20;4.00;101157.00;;;;4999642;28;20930;-80
2021/04/08 02:24:13;;;;;;;10.98;5.00;;;2.90;13.10;3.90;101156.00;;;;4983801;28;20428;-81
2021/04/08 02:26:41;;;;;;;10.00;4.40;;;3.00;13.20;3.90;67129.00;;;;4999890;28;20439;-81
2021/04/08 02:29:11;;;;;;;8.27;4.50;;;2.90;12.80;3.90;101163.00;;;;5000343;28;20428;-82
2021/04/08 02:31:40;;;;;;;7.80;4.80;;;2.90;12.90;3.90;101161.00;;;;4991218;28;20424;-80
2021/04/08 02:34:09;;;;;;;10.27;5.55;;;3.00;13.20;3.90;101165.00;;;;5000260;28;20430;-79
2021/04/08 02:36:38;;;;;;;12.70;4.82;;;2.80;13.70;3.90;101164.00;;;;4997417;28;20430;-80
2021/04/08 02:39:08;;;;;;;7.72;5.00;;;2.70;14.20;217.30;158318.00;;;;4997238;28;20427;-80
2021/04/08 02:41:39;;;;;;;8.15;5.10;;;2.80;14.50;3.80;101177.00;;;;5000261;28;20428;-80
2021/04/08 02:44:07;;;;;;;9.60;5.00;;;2.70;14.80;3.80;101155.00;;;;5014101;28;20513;-80
2021/04/08 02:46:35;;;;;;;10.55;5.70;;;2.70;15.10;3.70;67077.00;;;;5005920;28;20433;-81
2021/04/08 02:49:03;;;;;;;9.85;6.28;;;2.70;15.70;3.70;101176.00;;;;4996052;28;20477;-81
2021/04/08 02:51:36;;;;;;;8.77;5.40;;;2.70;16.10;3.70;101175.00;;;;4995285;28;20451;-80
2021/04/08 02:54:14;;;;;;;8.10;5.22;;;2.70;16.00;52.70;158276.00;;;;5003697;28;20468;-81
2021/04/08 02:56:46;;;;;;;11.20;5.23;;;2.70;16.50;3.70;101187.00;;;;4998990;28;20479;-81
2021/04/08 02:59:23;;;;;;;9.30;5.88;;;2.60;16.50;3.70;101181.00;;;;4993497;28;20434;-81
2021/04/08 03:01:55;;;;;;;11.02;5.70;;;2.60;16.60;3.70;101188.00;;;;4987427;28;20464;-81
2021/04/08 03:04:24;;;;;;;8.05;5.00;;;2.60;17.00;3.70;67060.00;;;;4994326;28;20469;-82
2021/04/08 03:06:53;;;;;;;9.60;5.05;;;2.60;16.90;3.70;101187.00;;;;4978607;28;20432;-82
2021/04/08 03:09:31;;;;;;;10.10;5.90;;;2.60;17.30;3.70;101190.00;;;;4987245;28;20474;-82
2021/04/08 03:12:04;;;;;;;9.45;5.43;;;2.60;17.30;3.60;101203.00;;;;4989479;28;20511;-83
2021/04/08 03:14:33;;;;;;;9.70;5.50;;;2.60;17.20;3.60;101197.00;;;;4976930;28;20432;-82
2021/04/08 03:17:02;;;;;;;11.57;5.90;;;2.60;17.10;3.70;101215.00;;;;4979561;28;20420;-81
2021/04/08 03:19:31;;;;;;;10.80;5.20;;;2.60;17.10;3.70;101201.00;;;;4986883;28;20482;-81
2021/04/08 03:22:00;;;;;;;8.93;4.85;;;2.70;17.20;3.80;67082.00;;;;4980427;28;20443;-82
2021/04/08 03:24:29;;;;;;;9.32;5.40;;;2.70;17.10;3.80;101203.00;;;;4988148;28;20423;-82
2021/04/08 03:26:58;;;;;;;10.68;5.30;;;2.70;16.90;3.90;101208.00;;;;4991731;28;20426;-81
2021/04/08 03:29:26;;;;;;;7.57;4.90;;;2.80;16.70;4.00;101213.00;;;;4977259;28;20478;-82
2021/04/08 03:31:54;;;;;;;9.25;5.30;;;2.90;16.10;4.10;101203.00;;;;4980001;28;20442;-81
2021/04/08 03:34:24;;;;;;;10.68;5.40;;;2.90;15.80;4.20;101216.00;;;;4986767;28;20461;-82
2021/04/08 03:36:52;;;;;;;9.65;5.22;;;3.10;15.90;4.30;101214.00;;;;4980597;28;20438;-81
2021/04/08 03:39:20;;;;;;;7.90;4.70;;;3.00;15.10;4.40;101216.00;;;;4980492;28;20474;-82
2021/04/08 03:41:50;;;;;;;8.10;4.70;;;3.10;14.80;4.40;101219.00;;;;4987653;28;21488;-82
2021/04/08 03:44:18;;;;;;;8.85;4.88;;;3.10;14.70;4.40;101215.00;;;;4980933;28;20427;-81
2021/04/08 03:46:47;;;;;;;10.02;5.10;;;3.10;14.30;217.30;158530.00;;;;4994005;28;20440;-82
2021/04/08 03:49:16;;;;;;;10.60;5.27;;;3.10;13.80;4.30;101218.00;;;;4984860;28;20535;-82
2021/04/08 03:51:46;;;;;;;9.20;5.32;;;3.20;14.20;4.30;101207.00;;;;4992274;28;20430;-81
2021/04/08 03:54:16;;;;;;;7.00;4.97;;;3.10;14.10;4.20;101214.00;;;;4976413;28;20441;-81
2021/04/08 03:56:46;;;;;;;8.07;4.85;;;3.10;13.70;4.30;101214.00;;;;4983869;28;20436;-81
2021/04/08 03:59:16;;;;;;;9.38;5.38;;;3.10;14.30;217.30;158504.00;;;;4976900;28;20488;-81
2021/04/08 04:01:46;;;;;;;9.27;5.20;;;3.10;14.70;4.40;101239.00;;;;4994815;28;20461;-81
2021/04/08 04:04:15;;;;;;;8.35;5.00;;;3.10;14.50;4.30;101234.00;;;;5010599;28;20425;-81
2021/04/08 04:06:48;;;;;;;12.33;6.90;;;3.10;14.70;4.40;101241.00;;;;5011372;28;20425;-81
2021/04/08 04:09:15;;;;;;;11.90;5.80;;;3.20;14.70;4.40;101245.00;;;;5022636;28;20455;-81
2021/04/08 04:11:45;;;;;;;10.97;5.10;;;3.10;15.00;4.40;101244.00;;;;5018889;28;20426;-81
2021/04/08 04:14:17;;;;;;;8.50;5.47;;;3.20;15.10;4.40;101255.00;;;;5003823;28;20424;-82
2021/04/08 04:16:45;;;;;;;10.30;5.53;;;3.20;15.10;4.40;101246.00;;;;5009043;28;20476;-81
2021/04/08 04:19:14;;;;;;;9.90;5.60;;;3.30;15.20;4.40;101249.00;;;;4987966;28;20426;-79
2021/04/08 04:21:41;;;;;;;9.85;5.47;;;3.20;15.50;4.40;101233.00;;;;5004509;28;20478;-81
2021/04/08 04:24:09;;;;;;;12.23;5.80;;;3.20;15.30;4.50;101164.00;;;;4994335;28;20457;-81
2021/04/08 04:26:37;;;;;;;10.43;5.60;;;3.20;15.80;4.40;101244.00;;;;4986141;28;21005;-81
2021/04/08 04:29:04;;;;;;;7.95;5.40;;;3.20;15.80;4.40;101244.00;;;;5001911;28;20970;-81
2021/04/08 04:31:34;;;;;;;9.27;6.05;;;3.20;16.00;4.40;101263.00;;;;5001998;28;20899;-81
2021/04/08 04:34:05;;;;;;;8.85;5.90;;;3.20;16.40;4.30;101240.00;;;;4994747;28;20437;-82
2021/04/08 04:36:33;;;;;;;10.75;5.82;;;3.20;16.10;4.30;101236.00;;;;4982545;28;20454;-80
2021/04/08 04:39:01;;;;;;;9.93;5.50;;;3.20;16.40;4.40;101248.00;;;;4984839;28;20434;-80
2021/04/08 04:41:28;;;;;;;12.07;6.13;;;3.20;16.60;4.40;101257.00;;;;4983910;28;21278;-80
2021/04/08 04:43:56;;;;;;;10.63;5.90;;;3.20;16.40;4.50;101264.00;;;;4992336;28;20424;-80
2021/04/08 04:46:24;;;;;;;8.23;5.38;;;3.20;16.40;4.50;101265.00;;;;4982412;28;20433;-82
2021/04/08 04:48:53;;;;;;;8.70;4.82;;;3.30;16.40;4.50;101253.00;;;;5001652;28;20996;-81
2021/04/08 04:51:21;;;;;;;10.68;5.50;;;3.30;16.30;4.60;101264.00;;;;4992221;28;20443;-80
2021/04/08 04:53:49;;;;;;;8.00;5.83;;;3.30;16.20;4.60;101259.00;;;;5004762;28;20427;-81
2021/04/08 04:56:16;;;;;;;10.90;5.18;;;3.40;15.90;4.60;101215.00;;;;5007334;28;20544;-81
2021/04/08 04:58:45;;;;;;;11.00;6.05;;;3.40;15.80;4.70;101259.00;;;;4997508;28;20416;-79
2021/04/08 05:01:13;;;;;;;12.05;6.20;;;3.50;15.90;4.80;101281.00;;;;4978067;28;20509;-81
2021/04/08 05:03:42;;;;;;;11.85;5.70;;;3.60;15.20;4.90;101262.00;;;;5005561;28;20410;-80
2021/04/08 05:06:12;;;;;;;9.88;6.00;;;3.60;15.00;5.00;101274.00;;;;4985432;28;20499;-83
2021/04/08 05:08:39;;;;;;;13.07;6.40;;;3.80;14.80;5.00;67366.00;;;;4988202;28;20419;-81
2021/04/08 05:11:07;;;;;;;12.93;6.60;;;3.80;14.30;5.10;101284.00;;;;5007621;28;20425;-81
2021/04/08 05:13:35;;;;;;;9.60;6.35;;;3.90;13.90;5.10;100986.00;;;;5021011;28;20423;-82
2021/04/08 05:16:03;;;;;;;8.50;5.70;;;4.00;13.40;5.30;101266.00;;;;5006886;28;20436;-80
2021/04/08 05:18:31;;;;;;;9.52;5.80;;;4.00;13.30;5.50;101274.00;;;;5021062;28;20422;-78
2021/04/08 05:20:59;;;;;;;10.05;5.80;;;4.10;12.90;5.60;101285.00;;;;5004344;28;20420;-80
2021/04/08 05:23:28;;;;;;;9.73;6.20;;;4.30;12.10;5.70;101281.00;;;;4999617;28;20441;-79
2021/04/08 05:25:56;;;;;;;12.07;5.78;;;4.40;12.00;5.80;101273.00;;;;4999571;28;20431;-80
2021/04/08 05:28:24;;;;;;;9.38;6.00;;;4.50;11.40;5.90;101286.00;;;;4997157;28;20424;-80
2021/04/08 05:30:51;;;;;;;10.55;6.00;;;4.60;11.30;5.90;101294.00;;;;5004648;28;20414;-80
2021/04/08 05:33:19;;;;;;;8.80;5.88;;;4.60;11.00;5.90;101294.00;;;;5001972;28;20517;-80
2021/04/08 05:35:50;;;;;;;13.68;6.50;;;4.50;11.20;5.90;101292.00;;;;5003659;28;20527;-81
2021/04/08 05:38:17;;;;;;;10.75;6.30;;;4.60;11.30;52.70;159220.00;;;;4984887;28;20432;-81
2021/04/08 05:40:46;;;;;;;8.20;5.80;;;4.60;11.50;5.90;101289.00;;;;4999305;28;20454;-82
2021/04/08 05:43:15;;;;;;;14.00;6.35;;;4.50;9.70;5.80;101266.00;;;;4987469;28;21277;-81
2021/04/08 05:45:45;;;;;;;9.13;5.60;;;4.40;10.20;5.70;101302.00;;;;4993096;28;20456;-83
2021/04/08 05:48:17;;;;;;;10.27;6.03;;;4.40;10.30;5.70;101299.00;;;;4994396;28;20419;-81
2021/04/08 05:50:44;;;;;;;11.97;6.40;;;4.40;10.40;5.80;101303.00;;;;5003296;28;20468;-80
2021/04/08 05:53:13;;;;;;;12.30;6.63;;;4.40;10.70;5.80;101297.00;;;;5000087;28;20432;-82
2021/04/08 05:55:40;;;;;;;12.15;6.93;;;4.40;10.30;5.70;101294.00;;;;5007870;28;20422;-81
2021/04/08 05:58:09;;;;;;;9.88;6.07;;;4.40;10.30;5.60;101308.00;;;;4995880;28;20419;-81
2021/04/08 06:00:36;;;;;;;13.10;6.80;;;4.30;10.20;5.60;101316.00;;;;4990384;28;20428;-81
2021/04/08 06:03:04;;;;;;;8.77;6.50;;;4.30;10.50;5.60;101314.00;;;;5004544;28;20545;-81
2021/04/08 06:05:34;;;;;;;12.67;6.53;;;4.20;10.50;5.70;101319.00;;;;5004938;28;20420;-82
2021/04/08 06:08:02;;;;;;;10.77;6.07;;;4.30;10.60;5.80;101330.00;;;;5005496;28;20425;-82
2021/04/08 06:10:30;;;;;;;11.85;6.60;;;4.30;10.40;5.90;101316.00;;;;5006685;28;20417;-81
2021/04/08 06:12:58;;;;;;;9.02;6.28;;;4.40;10.40;6.00;101317.00;;;;4994141;28;20433;-82
2021/04/08 06:15:28;;;;;;;10.10;6.70;;;4.50;10.30;6.10;101316.00;;;;4986604;28;20418;-81
2021/04/08 06:17:56;;;;;;;11.60;6.93;;;4.60;9.50;6.20;101312.00;;;;4985699;28;20424;-81
2021/04/08 06:20:25;;;;;;;10.50;6.03;;;4.70;9.30;6.30;101323.00;;;;4980999;28;20441;-82
2021/04/08 06:23:04;;;;;;;10.23;7.20;;;4.80;8.80;6.50;101330.00;;;;4988242;28;20459;-83
2021/04/08 06:25:32;;;;;;;10.93;6.70;;;4.90;8.40;6.80;101327.00;;;;4982423;28;20509;-82
2021/04/08 06:28:00;;;;;;;10.57;6.88;;;5.10;8.20;6.80;101329.00;;;;5006819;28;20426;-81
2021/04/08 06:30:29;;;;;;;12.48;7.18;;;5.20;7.60;6.90;101317.00;;;;4994261;28;20437;-82
2021/04/08 06:32:57;;;;;;;9.43;6.43;;;5.20;7.00;6.90;101325.00;;;;4997959;28;20498;-81
2021/04/08 06:35:25;;;;;;;10.18;6.88;;;5.20;6.30;6.90;101331.00;;;;5008715;28;20438;-81
2021/04/08 06:37:53;;;;;;;12.00;6.82;;;5.20;6.00;7.00;101336.00;;;;5009089;28;20425;-81
2021/04/08 06:40:22;;;;;;;10.73;7.00;;;5.30;6.10;7.00;101327.00;;;;5019167;28;20410;-80
2021/04/08 06:42:54;;;;;;;12.45;7.20;;;5.30;5.70;7.00;101343.00;;;;5006735;28;20425;-82
2021/04/08 06:45:25;;;;;;;10.82;6.60;;;5.40;5.60;7.30;101331.00;;;;5005609;28;20427;-82
2021/04/08 06:48:05;;;;;;;12.32;7.50;;;5.50;6.00;7.40;101335.00;;;;5008162;28;20416;-81
2021/04/08 06:50:38;;;;;;;13.03;7.40;;;5.70;6.00;7.50;101332.00;;;;5008448;28;20434;-81
2021/04/08 06:53:08;;;;;;;10.52;6.75;;;5.80;5.00;7.50;101357.00;;;;5022088;28;20443;-82
2021/04/08 06:55:36;;;;;;;9.27;6.30;;;5.80;4.70;7.60;101346.00;;;;5005074;28;20419;-82
2021/04/08 06:58:06;;;;;;;11.05;7.50;;;5.90;4.50;7.60;101371.00;;;;5003390;28;20490;-82
2021/04/08 07:00:35;;;;;;;11.23;7.00;;;5.90;3.80;7.40;101360.00;;;;5022150;28;20436;-80
2021/04/08 07:03:05;;;;;;;12.05;7.30;;;5.80;3.70;7.30;101372.00;;;;5004733;28;20520;-80
2021/04/08 07:05:33;;;;;;;10.82;7.05;;;5.70;3.60;7.30;101356.00;;;;5001896;28;20436;-81
2021/04/08 07:08:04;;;;;;;11.38;7.35;;;5.60;3.50;7.30;101363.00;;;;5019270;28;20440;-82
2021/04/08 07:10:32;;;;;;;11.93;6.88;;;5.60;4.10;7.50;101367.00;;;;5009570;28;20459;-81
2021/04/08 07:13:00;;;;;;;12.27;6.90;;;5.70;4.10;7.80;101357.00;;;;5008564;28;20469;-82
2021/04/08 07:15:28;;;;;;;12.45;7.28;;;5.90;4.30;8.10;101369.00;;;;4985662;28;20424;-82
2021/04/08 07:17:56;;;;;;;10.30;7.15;;;6.10;3.70;8.30;101375.00;;;;4998313;28;20444;-82
2021/04/08 07:20:25;;;;;;;9.85;7.43;;;6.30;3.10;8.20;101372.00;;;;4995400;28;20434;-82
2021/04/08 07:23:08;;;;;;;15.20;7.70;;;6.30;2.60;8.30;101368.00;;;;4981843;28;20426;-81
2021/04/08 07:25:36;;;;;;;12.20;7.40;;;6.40;2.60;8.30;101385.00;;;;4986477;28;20536;-82
2021/04/08 07:28:32;;;;;;;12.68;7.10;;;6.40;1.90;8.40;101378.00;;;;4988553;28;20492;-80
2021/04/08 07:31:26;;;;;;;11.85;7.10;;;6.40;2.60;8.50;101385.00;;;;5002016;28;20915;-82
2021/04/08 07:33:56;;;;;;;12.93;7.05;;;6.60;2.50;8.50;101277.00;;;;5001280;28;20499;-82
2021/04/08 07:36:29;;;;;;;10.07;6.88;;;6.70;1.80;8.40;101390.00;;;;5000419;28;20757;-82
2021/04/08 07:39:05;;;;;;;11.57;7.05;;;6.60;1.50;8.20;101384.00;;;;4998840;28;20417;-81
2021/04/08 07:41:34;;;;;;;15.25;7.70;;;6.50;1.50;8.40;101386.00;;;;5016668;28;20507;-82
2021/04/08 07:44:05;;;;;;;11.38;7.05;;;6.70;2.00;8.70;101391.00;;;;5025133;28;20421;-82
2021/04/08 07:46:36;;;;;;;9.13;6.13;;;6.80;1.80;8.70;101380.00;;;;5014288;28;20449;-82
2021/04/08 07:49:05;;;;;;;10.95;6.70;;;6.80;1.00;8.70;101383.00;;;;5002826;28;20524;-81
2021/04/08 07:51:35;;;;;;;10.35;6.70;;;6.80;1.00;8.70;101384.00;;;;5004744;28;20439;-82
2021/04/08 07:54:11;;;;;;;12.57;7.30;;;6.80;1.00;8.70;101390.00;;;;5004483;28;20411;-82
2021/04/08 07:56:39;;;;;;;11.07;7.20;;;6.90;1.00;8.90;101394.00;;;;5013323;28;20418;-82
2021/04/08 07:59:23;;;;;;;8.60;5.90;;;7.00;1.00;8.90;101402.00;;;;5013277;28;20432;-81
2021/04/08 08:01:58;;;;;;;12.48;6.53;;;7.00;1.00;9.10;101402.00;;;;5001798;28;20399;-81
2021/04/08 08:04:28;;;;;;;8.85;5.95;;;7.10;1.00;9.20;101406.00;;;;5020815;28;20417;-82
2021/04/08 08:06:57;;;;;;;9.52;6.90;;;7.20;1.00;9.30;101398.00;;;;5003844;28;20516;-82
2021/04/08 08:09:28;;;;;;;11.00;6.80;;;7.40;1.00;9.30;101395.00;;;;5021961;28;20484;-80
2021/04/08 08:11:58;;;;;;;8.90;6.50;;;7.40;1.00;9.50;101410.00;;;;5011628;28;20434;-81
2021/04/08 08:14:34;;;;;;;11.27;6.50;;;7.50;1.00;9.80;101414.00;;;;5020301;28;20427;-81
2021/04/08 08:17:05;;;;;;;9.88;6.40;;;7.70;1.00;9.90;101419.00;;;;5021463;28;20440;-81
2021/04/08 08:19:33;;;;;;;9.48;6.47;;;7.80;1.00;10.00;101403.00;;;;4998162;28;20421;-83
2021/04/08 08:22:04;;;;;;;10.87;5.60;;;7.90;1.00;10.00;101418.00;;;;5012879;28;20454;-81
2021/04/08 08:24:32;;;;;;;10.85;6.15;;;8.00;1.00;52.70;160837.00;;;;5002020;28;20429;-81
2021/04/08 08:27:01;;;;;;;9.25;5.22;;;7.90;1.00;9.30;101423.00;;;;5004956;28;20419;-82
2021/04/08 08:29:31;;;;;;;9.55;5.10;;;7.50;1.00;9.30;101415.00;;;;4999060;28;20426;-82
2021/04/08 08:32:00;;;;;;;9.88;5.70;;;7.60;1.00;9.30;101435.00;;;;4998033;28;20410;-82
2021/04/08 08:34:33;;;;;;;10.63;6.37;;;7.60;1.00;9.60;101436.00;;;;4993033;28;20421;-81
2021/04/08 08:37:04;;;;;;;10.85;6.28;;;7.80;1.00;9.90;101415.00;;;;4994488;28;20421;-82
2021/04/08 08:39:34;;;;;;;9.88;6.38;;;8.10;1.00;10.00;101416.00;;;;5013554;28;20414;-82
2021/04/08 08:42:05;;;;;;;9.38;6.18;;;8.20;1.00;10.30;101430.00;;;;4996455;28;20478;-82
2021/04/08 08:44:34;;;;;;;10.80;6.70;;;8.30;1.00;10.50;101425.00;;;;5012779;28;20449;-81
2021/04/08 08:47:07;;;;;;;11.90;6.90;;;8.60;1.00;10.50;101422.00;;;;5003522;28;20440;-81
2021/04/08 08:49:43;;;;;;;9.25;6.10;;;8.70;1.00;10.50;101413.00;;;;5009738;28;20986;-81
2021/04/08 08:52:17;;;;;;;7.75;5.30;;;8.70;1.00;10.70;101423.00;;;;5015882;28;20410;-81
2021/04/08 08:54:45;;;;;;;8.32;5.15;;;8.80;1.00;11.00;101415.00;;;;5009433;28;20484;-80
2021/04/08 08:57:13;;;;;;;8.90;5.30;;;9.10;1.00;11.00;101434.00;;;;5022622;28;20447;-81
2021/04/08 08:59:44;;;;;;;8.32;5.32;;;9.20;1.00;11.20;101419.00;;;;4991611;28;20423;-81
2021/04/08 09:02:12;;;;;;;9.70;5.10;;;9.30;1.00;11.40;101427.00;;;;5008104;28;20425;-81
2021/04/08 09:04:40;;;;;;;10.80;5.25;;;9.40;1.00;11.70;101438.00;;;;5005463;28;20437;-81
2021/04/08 09:07:13;;;;;;;8.83;4.80;;;9.50;1.00;12.10;101411.00;;;;5003442;28;20882;-82
2021/04/08 09:09:46;;;;;;;7.65;5.00;;;9.80;1.00;12.30;101425.00;;;;5021911;28;20417;-82
2021/04/08 09:12:17;;;;;;;9.70;5.10;;;10.00;1.00;12.40;101421.00;;;;5019478;28;20419;-81
2021/04/08 09:14:47;;;;;;;8.73;4.68;;;10.10;1.00;12.40;101419.00;;;;5003550;28;20806;-81
2021/04/08 09:17:38;;;;;;;7.75;4.30;;;10.20;1.00;12.40;101417.00;;;;5001907;28;20416;-81
2021/04/08 09:20:09;;;;;;;7.50;4.35;;;10.00;1.00;12.40;101425.00;;;;5018552;28;20488;-82
2021/04/08 09:22:55;;;;;;;6.70;3.70;;;10.10;1.00;12.40;101421.00;;;;5008908;28;20430;-81
2021/04/08 09:25:29;;;;;;;7.07;4.10;;;10.10;1.00;12.20;101441.00;;;;4999724;28;20435;-81
2021/04/08 09:28:08;;;;;;;5.88;3.60;;;9.90;1.00;11.90;101438.00;;;;5009615;28;20426;-82
2021/04/08 09:30:50;;;;;;;6.22;3.45;;;9.70;1.00;11.50;101425.00;;;;4999331;28;20434;-82
2021/04/08 09:33:20;;;;;;;5.90;3.42;;;9.40;1.00;11.30;101416.00;;;;4998496;28;20432;-82
2021/04/08 09:35:47;;;;;;;7.15;3.03;;;9.30;1.00;11.30;101414.00;;;;4993707;28;20454;-82
2021/04/08 09:38:22;;;;;;;6.68;2.97;;;9.20;1.00;11.20;101426.00;;;;4996838;28;20438;-81
2021/04/08 09:40:57;;;;;;;6.45;3.17;;;9.10;1.00;11.10;101415.00;;;;4995627;28;20430;-82
2021/04/08 09:43:31;;;;;;;7.83;3.80;;;8.90;1.00;10.90;101430.00;;;;4988403;28;20455;-82
2021/04/08 09:46:17;;;;;;;9.18;4.30;;;8.90;1.00;10.80;101412.00;;;;4995927;28;20910;-82
2021/04/08 09:48:52;;;;;;;7.63;3.20;;;8.70;1.00;10.90;101409.00;;;;5002844;28;20429;-81
2021/04/08 09:51:36;;;;;;;7.47;3.28;;;8.80;1.00;11.10;101407.00;;;;5003024;28;20450;-80
2021/04/08 09:54:11;;;;;;;8.18;5.00;;;9.00;1.00;11.30;101421.00;;;;4996042;28;20459;-81
2021/04/08 09:56:57;;;;;;;6.70;3.40;;;9.20;1.00;11.60;101416.00;;;;4994867;28;20554;-82
2021/04/08 09:59:27;;;;;;;5.35;2.90;;;9.40;1.00;11.80;101417.00;;;;5002328;28;20432;-83
2021/04/08 10:01:54;;;;;;;6.00;3.13;;;9.40;1.00;12.10;101431.00;;;;5000613;28;20496;-82
2021/04/08 10:04:25;;;;;;;6.97;3.00;;;9.60;1.00;12.00;101432.00;;;;4984495;28;21014;-82
2021/04/08 10:07:03;;;;;;;6.25;2.63;;;9.70;1.00;11.70;101430.00;;;;4985892;28;20745;-81
2021/04/08 10:09:34;;;;;;;8.48;2.90;;;9.50;1.00;11.70;101424.00;;;;4994129;28;20443;-82
2021/04/08 10:12:03;;;;;;;7.40;2.97;;;9.40;1.00;12.10;101422.00;;;;5002227;28;20424;-82
2021/04/08 10:14:31;;;;;;;5.50;2.85;;;9.70;1.00;12.30;101424.00;;;;4996004;28;20426;-81
2021/04/08 10:17:11;;;;;;;6.05;3.10;;;9.90;1.00;12.10;101420.00;;;;4995686;28;20936;-81
2021/04/08 10:19:44;;;;;;;6.73;3.17;;;9.80;1.00;12.10;101423.00;;;;4995940;28;20509;-82
2021/04/08 10:22:13;;;;;;;7.55;3.50;;;9.80;1.00;12.10;101420.00;;;;5004735;28;20436;-82
2021/04/08 10:24:44;;;;;;;6.50;3.75;;;9.80;1.00;12.10;101427.00;;;;4989640;28;20422;-82
2021/04/08 10:27:15;;;;;;;7.20;3.60;;;9.80;1.00;12.20;101400.00;;;;5006544;28;20784;-82
2021/04/08 10:29:45;;;;;;;9.40;4.13;;;9.90;1.00;12.40;101419.00;;;;5001490;28;20432;-81
2021/04/08 10:32:13;;;;;;;9.30;4.50;;;10.00;1.00;12.40;101399.00;;;;4984904;28;20518;-80
2021/04/08 10:34:42;;;;;;;7.30;4.20;;;10.00;1.00;12.20;101403.00;;;;5007731;28;20425;-81
2021/04/08 10:37:10;;;;;;;6.00;4.18;;;9.90;1.00;12.10;101408.00;;;;4993762;28;20425;-82
2021/04/08 10:39:39;;;;;;;9.45;4.07;;;9.70;1.00;12.00;101401.00;;;;5019281;28;20430;-82
2021/04/08 10:42:12;;;;;;;6.50;3.60;;;9.60;1.00;11.80;101419.00;;;;5019524;28;20416;-81
2021/04/08 10:44:41;;;;;;;6.25;3.60;;;9.60;1.00;11.60;101391.00;;;;5011566;28;20429;-82
2021/04/08 10:47:13;;;;;;;5.43;3.60;;;9.40;1.00;11.30;101397.00;;;;5003855;28;20436;-82
2021/04/08 10:49:45;;;;;;;6.90;3.97;;;9.20;1.00;11.00;101404.00;;;;5007644;28;20505;-83
2021/04/08 10:52:16;;;;;;;6.88;4.40;;;9.00;1.00;10.80;101412.00;;;;5002716;28;20432;-83
2021/04/08 10:54:48;;;;;;;8.17;4.70;;;9.00;1.00;10.50;101397.00;;;;5020410;28;20429;-82
2021/04/08 10:57:17;;;;;;;8.10;4.57;;;8.80;1.00;10.50;101392.00;;;;5015026;28;20584;-82
2021/04/08 10:59:47;;;;;;;6.28;4.22;;;8.60;1.00;217.30;161222.00;;;;4994527;28;20927;-83
2021/04/08 11:02:25;;;;;;;11.10;4.55;;;8.60;1.00;10.60;101346.00;;;;4998982;28;20461;-81
2021/04/08 11:04:56;;;;;;;6.13;3.40;;;8.60;1.00;10.50;101374.00;;;;5010913;28;20469;-81
2021/04/08 11:07:25;;;;;;;5.43;3.00;;;8.70;1.00;10.60;101372.00;;;;5011256;28;20444;-83
2021/04/08 11:10:07;;;;;;;5.60;3.20;;;8.80;1.00;11.10;101383.00;;;;5007479;28;20422;-82
2021/04/08 11:12:35;;;;;;;5.32;2.80;;;9.20;1.00;11.90;101385.00;;;;5015983;28;20432;-83
2021/04/08 11:15:06;;;;;;;5.60;3.08;;;9.60;1.00;12.30;101392.00;;;;4994680;28;20943;-83